createdAt,value
2023-05-11T00:00:49.166Z,14.50
2023-05-11T00:03:15.976Z,14.50
2023-05-11T00:05:42.633Z,14.50
2023-05-11T00:08:09.329Z,14.50
2023-05-11T00:10:35.974Z,14.50
2023-05-11T00:13:02.668Z,14.50
2023-05-11T00:15:29.470Z,14.50
2023-05-11T00:17:56.139Z,14.40
2023-05-11T00:20:23.870Z,14.40
2023-05-11T00:22:50.597Z,14.40
2023-05-11T00:25:17.221Z,14.40
2023-05-11T00:27:46.160Z,14.40
2023-05-11T00:30:14.958Z,14.40
2023-05-11T00:32:42.546Z,14.40
2023-05-11T00:35:13.106Z,14.40
2023-05-11T00:37:40.153Z,14.40
2023-05-11T00:40:07.612Z,14.30
2023-05-11T00:42:34.768Z,14.30
2023-05-11T00:45:01.747Z,14.30
2023-05-11T00:47:28.550Z,14.30
2023-05-11T00:49:55.396Z,14.30
2023-05-11T00:52:22.528Z,14.30
2023-05-11T00:54:49.293Z,14.30
2023-05-11T00:57:17.009Z,14.30
2023-05-11T00:59:43.587Z,14.30
2023-05-11T01:02:10.522Z,14.30
2023-05-11T01:04:37.570Z,14.20
2023-05-11T01:07:18.145Z,14.20
2023-05-11T01:10:32.334Z,14.20
2023-05-11T01:13:10.798Z,14.20
2023-05-11T01:15:53.868Z,14.20
2023-05-11T01:18:28.318Z,14.20
2023-05-11T01:21:01.114Z,14.20
2023-05-11T01:23:55.831Z,14.10
2023-05-11T01:26:49.433Z,14.10
2023-05-11T01:29:19.031Z,14.10
2023-05-11T01:31:48.566Z,14.10
2023-05-11T01:34:22.574Z,14.10
2023-05-11T01:37:04.531Z,14.10
2023-05-11T01:39:37.426Z,14.10
2023-05-11T01:42:10.637Z,14.10
2023-05-11T01:44:42.382Z,14.10
2023-05-11T01:47:11.956Z,14.00
2023-05-11T01:49:40.182Z,14.00
2023-05-11T01:52:08.405Z,14.00
2023-05-11T01:54:36.446Z,14.00
2023-05-11T01:57:04.439Z,14.00
2023-05-11T01:59:32.801Z,14.00
2023-05-11T02:02:01.442Z,14.00
2023-05-11T02:04:29.600Z,14.00
2023-05-11T02:06:59.072Z,14.00
2023-05-11T02:09:26.731Z,14.00
2023-05-11T02:11:54.818Z,14.00
2023-05-11T02:14:23.076Z,13.90
2023-05-11T02:16:50.480Z,14.00
2023-05-11T02:19:18.381Z,14.00
2023-05-11T02:21:45.802Z,13.90
2023-05-11T02:24:12.778Z,13.90
2023-05-11T02:26:39.481Z,13.90
2023-05-11T02:29:06.174Z,13.90
2023-05-11T02:31:39.462Z,13.90
2023-05-11T02:34:20.846Z,13.90
2023-05-11T02:36:54.304Z,13.90
2023-05-11T02:39:22.085Z,13.90
2023-05-11T02:41:56.424Z,13.90
2023-05-11T02:44:27.469Z,13.80
2023-05-11T02:46:56.021Z,13.80
2023-05-11T02:49:25.438Z,13.80
2023-05-11T02:51:54.947Z,13.80
2023-05-11T02:54:23.889Z,13.80
2023-05-11T02:56:51.562Z,13.80
2023-05-11T02:59:18.409Z,13.80
2023-05-11T03:01:45.444Z,13.80
2023-05-11T03:04:12.524Z,13.80
2023-05-11T03:06:39.303Z,13.80
2023-05-11T03:09:08.502Z,13.80
2023-05-11T03:11:37.505Z,13.80
2023-05-11T03:14:04.241Z,13.80
2023-05-11T03:16:32.147Z,13.80
2023-05-11T03:19:01.870Z,13.70
2023-05-11T03:21:29.093Z,13.70
2023-05-11T03:23:57.335Z,13.70
2023-05-11T03:26:28.592Z,13.70
2023-05-11T03:28:57.043Z,13.70
2023-05-11T03:31:23.757Z,13.70
2023-05-11T03:33:50.543Z,13.70
2023-05-11T03:36:17.973Z,13.70
2023-05-11T03:38:47.532Z,13.70
2023-05-11T03:41:19.162Z,13.70
2023-05-11T03:43:49.342Z,13.70
2023-05-11T03:46:20.197Z,13.70
2023-05-11T03:48:48.001Z,13.60
2023-05-11T03:51:15.002Z,13.60
2023-05-11T03:53:41.934Z,13.60
2023-05-11T03:56:08.787Z,13.60
2023-05-11T03:58:40.540Z,13.60
2023-05-11T04:01:09.065Z,13.60
2023-05-11T04:03:56.550Z,13.60
2023-05-11T04:06:23.295Z,13.60
2023-05-11T04:08:50.514Z,13.60
2023-05-11T04:11:17.167Z,13.60
2023-05-11T04:13:43.768Z,13.60
2023-05-11T04:16:10.597Z,13.60
2023-05-11T04:18:37.231Z,13.60
2023-05-11T04:21:04.103Z,13.50
2023-05-11T04:23:30.722Z,13.40
2023-05-11T04:25:57.925Z,13.50
2023-05-11T04:28:27.666Z,13.50
2023-05-11T04:30:55.461Z,13.50
2023-05-11T04:33:22.644Z,13.50
2023-05-11T04:35:53.868Z,13.50
2023-05-11T04:38:22.426Z,13.50
2023-05-11T04:40:50.631Z,13.60
2023-05-11T04:43:18.338Z,13.60
2023-05-11T04:45:51.354Z,13.60
2023-05-11T04:48:20.498Z,13.60
2023-05-11T04:50:47.771Z,13.60
2023-05-11T04:53:14.742Z,13.60
2023-05-11T04:55:41.349Z,13.60
2023-05-11T04:58:08.056Z,13.60
2023-05-11T05:00:36.581Z,13.60
2023-05-11T05:03:03.721Z,13.60
2023-05-11T05:05:30.667Z,13.60
2023-05-11T05:07:57.466Z,13.60
2023-05-11T05:10:24.125Z,13.60
2023-05-11T05:12:50.779Z,13.60
2023-05-11T05:15:17.488Z,13.60
2023-05-11T05:17:44.235Z,13.60
2023-05-11T05:20:11.275Z,13.60
2023-05-11T05:22:38.036Z,13.60
2023-05-11T05:25:05.057Z,13.60
2023-05-11T05:27:34.769Z,13.60
2023-05-11T05:30:01.807Z,13.70
2023-05-11T05:32:28.417Z,13.60
2023-05-11T05:34:55.192Z,13.70
2023-05-11T05:37:21.886Z,13.70
2023-05-11T05:39:48.639Z,13.70
2023-05-11T05:42:15.439Z,13.70
2023-05-11T05:44:42.020Z,13.70
2023-05-11T05:47:08.811Z,13.70
2023-05-11T05:49:35.386Z,13.70
2023-05-11T05:52:02.077Z,13.60
2023-05-11T05:54:28.674Z,13.70
2023-05-11T05:56:55.495Z,13.80
2023-05-11T05:59:24.266Z,13.80
2023-05-11T06:01:51.613Z,13.80
2023-05-11T06:04:18.915Z,13.80
2023-05-11T06:06:46.539Z,13.80
2023-05-11T06:09:13.805Z,13.80
2023-05-11T06:11:41.109Z,13.80
2023-05-11T06:14:07.709Z,13.80
2023-05-11T06:16:34.351Z,13.80
2023-05-11T06:19:01.173Z,13.80
2023-05-11T06:21:27.982Z,13.80
2023-05-11T06:23:54.598Z,13.80
2023-05-11T06:26:25.025Z,13.90
2023-05-11T06:28:52.732Z,13.90
2023-05-11T06:31:19.642Z,13.90
2023-05-11T06:33:46.378Z,13.90
2023-05-11T06:36:12.974Z,13.90
2023-05-11T06:38:39.519Z,13.90
2023-05-11T06:41:06.692Z,13.90
2023-05-11T06:43:33.699Z,14.00
2023-05-11T06:46:00.358Z,14.00
2023-05-11T06:48:29.963Z,14.00
2023-05-11T06:50:57.350Z,14.00
2023-05-11T06:53:24.076Z,14.00
2023-05-11T06:55:50.779Z,14.00
2023-05-11T06:58:20.631Z,14.00
2023-05-11T07:00:47.528Z,14.10
2023-05-11T07:03:14.260Z,14.10
2023-05-11T07:05:41.098Z,14.10
2023-05-11T07:08:07.766Z,14.10
2023-05-11T07:10:34.514Z,14.10
2023-05-11T07:13:01.153Z,14.10
2023-05-11T07:15:27.836Z,14.10
2023-05-11T07:17:54.680Z,14.10
2023-05-11T07:20:21.516Z,14.10
2023-05-11T07:22:48.354Z,14.20
2023-05-11T07:25:15.038Z,14.10
2023-05-11T07:27:41.717Z,14.10
2023-05-11T07:30:08.786Z,14.20
2023-05-11T07:32:35.564Z,14.20
2023-05-11T07:35:02.177Z,14.20
2023-05-11T07:37:28.914Z,14.20
2023-05-11T07:39:55.732Z,14.20
2023-05-11T07:42:22.290Z,14.20
2023-05-11T07:44:48.923Z,14.20
2023-05-11T07:47:16.364Z,14.20
2023-05-11T07:49:44.202Z,14.20
2023-05-11T07:52:11.789Z,14.20
2023-05-11T07:54:40.315Z,14.20
2023-05-11T07:57:07.212Z,14.20
2023-05-11T07:59:33.994Z,14.20
2023-05-11T08:02:00.713Z,14.20
2023-05-11T08:04:28.017Z,14.20
2023-05-11T08:06:54.722Z,14.20
2023-05-11T08:09:22.579Z,14.20
2023-05-11T08:11:49.997Z,14.20
2023-05-11T08:14:17.352Z,14.20
2023-05-11T08:16:44.508Z,14.30
2023-05-11T08:19:13.093Z,14.30
2023-05-11T08:21:40.341Z,14.30
2023-05-11T08:24:07.312Z,14.30
2023-05-11T08:26:34.230Z,14.30
2023-05-11T08:29:00.939Z,14.30
2023-05-11T08:31:27.673Z,14.30
2023-05-11T08:33:54.448Z,14.30
2023-05-11T08:36:21.527Z,14.30
2023-05-11T08:38:48.203Z,14.30
2023-05-11T08:41:14.874Z,14.40
2023-05-11T08:43:43.614Z,14.40
2023-05-11T08:46:11.682Z,14.40
2023-05-11T08:48:38.617Z,14.40
2023-05-11T08:51:05.683Z,14.40
2023-05-11T08:53:32.856Z,14.40
2023-05-11T08:56:01.553Z,14.50
2023-05-11T08:58:28.995Z,14.50
2023-05-11T09:00:56.233Z,14.60
2023-05-11T09:03:23.545Z,14.60
2023-05-11T09:05:50.973Z,14.60
2023-05-11T09:08:18.742Z,14.70
2023-05-11T09:10:45.458Z,14.70
2023-05-11T09:13:12.338Z,14.70
2023-05-11T09:15:39.058Z,14.70
2023-05-11T09:18:06.310Z,14.70
2023-05-11T09:20:34.203Z,14.70
2023-05-11T09:23:01.651Z,14.80
2023-05-11T09:25:33.150Z,14.80
2023-05-11T09:28:00.372Z,14.90
2023-05-11T09:30:27.716Z,14.90
2023-05-11T09:32:59.594Z,14.90
2023-05-11T09:35:29.950Z,15.00
2023-05-11T09:38:00.769Z,15.00
2023-05-11T09:43:01.358Z,15.00
2023-05-11T09:45:42.273Z,15.00
2023-05-11T09:48:21.083Z,15.10
2023-05-11T09:50:58.199Z,15.10
2023-05-11T09:53:45.964Z,15.10
2023-05-11T09:56:14.120Z,15.10
2023-05-11T09:58:50.267Z,15.20
2023-05-11T10:01:19.307Z,15.30
2023-05-11T10:04:00.371Z,15.30
2023-05-11T10:06:58.732Z,15.30
2023-05-11T10:09:27.357Z,15.30
2023-05-11T10:11:55.697Z,15.30
2023-05-11T10:14:22.755Z,15.40
2023-05-11T10:16:50.146Z,15.50
2023-05-11T10:19:17.730Z,15.50
2023-05-11T10:21:45.035Z,15.50
2023-05-11T10:24:12.142Z,15.60
2023-05-11T10:26:39.174Z,15.50
2023-05-11T10:29:06.368Z,15.60
2023-05-11T10:31:33.604Z,15.60
2023-05-11T10:34:01.748Z,15.60
2023-05-11T10:36:29.250Z,15.60
2023-05-11T10:38:55.931Z,15.70
2023-05-11T10:41:52.441Z,15.80
2023-05-11T10:44:35.226Z,15.90
2023-05-11T10:47:13.901Z,15.90
2023-05-11T10:49:52.404Z,16.00
2023-05-11T10:52:38.954Z,16.10
2023-05-11T10:55:22.521Z,16.20
2023-05-11T10:58:15.673Z,16.30
2023-05-11T11:01:20.032Z,16.20
2023-05-11T11:04:02.126Z,16.40
2023-05-11T11:06:29.581Z,16.50
2023-05-11T11:09:01.545Z,16.50
2023-05-11T11:11:48.041Z,16.60
2023-05-11T11:14:16.412Z,16.60
2023-05-11T11:17:15.433Z,16.70
2023-05-11T11:19:43.477Z,16.90
2023-05-11T11:22:36.541Z,17.10
2023-05-11T11:25:10.382Z,17.20
2023-05-11T11:27:40.011Z,17.40
2023-05-11T11:30:20.102Z,17.30
2023-05-11T11:32:52.309Z,17.50
2023-05-11T11:35:43.692Z,17.50
2023-05-11T11:38:18.780Z,17.70
2023-05-11T11:40:51.390Z,17.60
2023-05-11T11:43:21.651Z,17.80
2023-05-11T11:45:53.868Z,17.90
2023-05-11T11:48:37.779Z,17.90
2023-05-11T11:51:13.941Z,17.80
2023-05-11T11:53:44.631Z,17.90
2023-05-11T11:56:14.093Z,18.00
2023-05-11T11:58:43.419Z,18.00
2023-05-11T12:01:23.203Z,18.00
2023-05-11T12:04:19.472Z,18.10
2023-05-11T12:06:55.408Z,18.10
2023-05-11T12:09:23.203Z,18.00
2023-05-11T12:11:50.465Z,18.10
2023-05-11T12:14:17.271Z,18.10
2023-05-11T12:16:43.907Z,18.10
2023-05-11T12:19:10.693Z,18.10
2023-05-11T12:21:37.352Z,18.20
2023-05-11T12:24:05.646Z,18.40
2023-05-11T12:26:33.377Z,18.50
2023-05-11T12:29:25.946Z,18.60
2023-05-11T12:31:52.959Z,18.80
2023-05-11T12:34:22.810Z,18.90
2023-05-11T12:36:51.150Z,19.10
2023-05-11T12:39:22.181Z,19.30
2023-05-11T12:41:50.063Z,19.40
2023-05-11T12:44:17.894Z,19.40
2023-05-11T12:46:48.688Z,19.60
2023-05-11T12:49:26.853Z,19.80
2023-05-11T12:51:59.637Z,19.90
2023-05-11T12:54:37.657Z,20.00
2023-05-11T12:57:06.015Z,20.10
2023-05-11T12:59:32.579Z,20.20
2023-05-11T13:02:16.459Z,20.40
2023-05-11T13:04:44.212Z,20.60
2023-05-11T13:07:12.407Z,20.70
2023-05-11T13:09:40.321Z,20.70
2023-05-11T13:12:11.114Z,20.80
2023-05-11T13:14:38.766Z,20.90
2023-05-11T13:17:05.667Z,20.80
2023-05-11T13:19:33.548Z,20.80
2023-05-11T13:22:00.880Z,20.70
2023-05-11T13:24:27.633Z,20.60
2023-05-11T13:26:55.834Z,20.50
2023-05-11T13:29:22.541Z,20.50
2023-05-11T13:31:51.385Z,20.60
2023-05-11T13:34:19.054Z,20.50
2023-05-11T13:36:46.739Z,20.50
2023-05-11T13:39:13.358Z,20.60
2023-05-11T13:41:40.013Z,20.60
2023-05-11T13:44:06.660Z,20.70
2023-05-11T13:46:33.320Z,20.50
2023-05-11T13:49:00.476Z,20.60
2023-05-11T13:51:27.709Z,20.70
2023-05-11T13:53:54.619Z,20.70
2023-05-11T13:56:22.036Z,20.70
2023-05-11T13:58:48.967Z,20.60
2023-05-11T14:01:15.696Z,20.60
2023-05-11T14:03:42.408Z,20.60
2023-05-11T14:06:09.315Z,20.70
2023-05-11T14:08:36.060Z,20.70
2023-05-11T14:11:02.677Z,20.60
2023-05-11T14:13:29.323Z,20.70
2023-05-11T14:15:57.009Z,20.70
2023-05-11T14:18:24.954Z,20.60
2023-05-11T14:20:51.941Z,20.70
2023-05-11T14:23:18.577Z,20.70
2023-05-11T14:25:45.198Z,20.80
2023-05-11T14:28:12.297Z,20.80
2023-05-11T14:30:38.945Z,20.60
2023-05-11T14:33:05.726Z,20.70
2023-05-11T14:35:32.564Z,20.80
2023-05-11T14:37:59.199Z,20.80
2023-05-11T14:40:25.820Z,20.70
2023-05-11T14:42:52.463Z,20.70
2023-05-11T14:45:19.302Z,20.70
2023-05-11T14:47:46.185Z,20.70
2023-05-11T14:50:12.910Z,20.70
2023-05-11T14:52:39.552Z,20.70
2023-05-11T14:55:06.753Z,20.70
2023-05-11T14:57:33.392Z,20.70
2023-05-11T15:00:00.660Z,20.70
2023-05-11T15:02:28.799Z,20.70
2023-05-11T15:04:55.655Z,20.70
2023-05-11T15:07:22.283Z,20.70
2023-05-11T15:09:49.775Z,20.70
2023-05-11T15:12:16.525Z,20.70
2023-05-11T15:14:43.083Z,20.70
2023-05-11T15:17:09.775Z,20.70
2023-05-11T15:19:36.415Z,20.80
2023-05-11T15:22:03.473Z,20.70
2023-05-11T15:24:30.138Z,20.70
2023-05-11T15:27:00.256Z,20.70
2023-05-11T15:29:27.326Z,20.70
2023-05-11T15:31:54.952Z,20.90
2023-05-11T15:34:21.866Z,21.00
2023-05-11T15:36:49.814Z,21.00
2023-05-11T15:39:17.711Z,21.10
2023-05-11T15:41:44.419Z,21.10
2023-05-11T15:44:12.049Z,21.10
2023-05-11T15:46:38.969Z,21.20
2023-05-11T15:49:08.812Z,21.20
2023-05-11T15:51:35.581Z,21.20
2023-05-11T15:54:02.173Z,21.30
2023-05-11T15:56:28.837Z,21.20
2023-05-11T15:58:55.475Z,21.20
2023-05-11T16:01:22.348Z,21.20
2023-05-11T16:03:48.981Z,21.20
2023-05-11T16:06:15.653Z,20.80
2023-05-11T16:08:42.341Z,21.00
2023-05-11T16:11:08.963Z,21.00
2023-05-11T16:13:35.544Z,21.00
2023-05-11T16:16:02.189Z,21.00
2023-05-11T16:18:28.974Z,21.00
2023-05-11T16:20:56.464Z,21.00
2023-05-11T16:23:25.525Z,20.90
2023-05-11T16:25:52.654Z,21.00
2023-05-11T16:28:19.826Z,20.90
2023-05-11T16:30:46.457Z,20.90
2023-05-11T16:33:13.296Z,20.90
2023-05-11T16:35:39.945Z,20.80
2023-05-11T16:38:06.794Z,20.80
2023-05-11T16:40:33.449Z,20.80
2023-05-11T16:43:00.104Z,20.80
2023-05-11T16:45:26.842Z,20.80
2023-05-11T16:47:53.584Z,20.80
2023-05-11T16:50:20.604Z,20.80
2023-05-11T16:52:48.773Z,20.80
2023-05-11T16:55:16.145Z,20.80
2023-05-11T16:57:44.581Z,20.80
2023-05-11T17:00:12.728Z,20.80
2023-05-11T17:02:39.752Z,20.70
2023-05-11T17:05:08.147Z,20.70
2023-05-11T17:07:34.764Z,20.70
2023-05-11T17:10:01.751Z,20.60
2023-05-11T17:12:29.662Z,20.60
2023-05-11T17:14:57.493Z,20.60
2023-05-11T17:17:24.643Z,20.50
2023-05-11T17:19:52.042Z,20.50
2023-05-11T17:22:19.042Z,20.50
2023-05-11T17:24:46.996Z,20.50
2023-05-11T17:27:13.844Z,20.40
2023-05-11T17:29:43.384Z,20.40
2023-05-11T17:32:10.193Z,20.40
2023-05-11T17:34:36.968Z,20.30
2023-05-11T17:37:03.862Z,20.30
2023-05-11T17:39:30.910Z,20.30
2023-05-11T17:41:57.979Z,20.20
2023-05-11T17:44:24.684Z,20.20
2023-05-11T17:46:52.124Z,20.10
2023-05-11T17:49:18.726Z,20.10
2023-05-11T17:51:47.250Z,20.10
2023-05-11T17:54:14.274Z,20.00
2023-05-11T17:56:41.283Z,20.00
2023-05-11T17:59:08.154Z,20.00
2023-05-11T18:01:34.855Z,19.90
2023-05-11T18:04:02.057Z,19.90
2023-05-11T18:06:29.188Z,19.90
2023-05-11T18:08:55.924Z,19.60
2023-05-11T18:11:22.689Z,19.70
2023-05-11T18:13:49.260Z,19.70
2023-05-11T18:16:17.975Z,19.70
2023-05-11T18:18:45.059Z,19.70
2023-05-11T18:21:11.725Z,19.60
2023-05-11T18:23:38.582Z,19.60
2023-05-11T18:26:06.921Z,19.50
2023-05-11T18:28:33.663Z,19.50
2023-05-11T18:31:00.502Z,19.50
2023-05-11T18:33:27.148Z,19.40
2023-05-11T18:35:53.920Z,19.40
2023-05-11T18:38:20.593Z,19.40
2023-05-11T18:40:47.556Z,19.30
2023-05-11T18:43:14.188Z,19.30
2023-05-11T18:45:41.247Z,19.30
2023-05-11T18:48:08.173Z,19.20
2023-05-11T18:50:34.881Z,19.20
2023-05-11T18:53:02.194Z,19.10
2023-05-11T18:55:30.896Z,19.10
2023-05-11T18:57:58.160Z,19.10
2023-05-11T19:00:24.876Z,19.10
2023-05-11T19:02:52.170Z,19.00
2023-05-11T19:05:19.381Z,19.00
2023-05-11T19:07:46.169Z,18.90
2023-05-11T19:10:18.173Z,18.90
2023-05-11T19:12:45.026Z,18.90
2023-05-11T19:15:11.795Z,18.80
2023-05-11T19:17:38.500Z,18.80
2023-05-11T19:20:06.057Z,18.80
2023-05-11T19:22:33.736Z,18.70
2023-05-11T19:25:00.896Z,18.70
2023-05-11T19:27:27.613Z,18.70
2023-05-11T19:29:54.259Z,18.60
2023-05-11T19:32:23.246Z,18.60
2023-05-11T19:34:50.047Z,18.50
2023-05-11T19:37:16.642Z,18.50
2023-05-11T19:39:44.185Z,18.50
2023-05-11T19:42:11.320Z,18.40
2023-05-11T19:44:43.360Z,18.40
2023-05-11T19:47:10.697Z,18.30
2023-05-11T19:49:37.542Z,18.30
2023-05-11T19:52:04.354Z,18.20
2023-05-11T19:54:34.263Z,18.20
2023-05-11T19:57:01.029Z,18.10
2023-05-11T19:59:32.717Z,18.10
2023-05-11T20:02:00.359Z,18.10
2023-05-11T20:04:30.846Z,18.00
2023-05-11T20:06:57.870Z,18.00
2023-05-11T20:09:25.077Z,17.90
2023-05-11T20:11:51.753Z,17.90
2023-05-11T20:14:18.408Z,17.80
2023-05-11T20:16:45.189Z,17.80
2023-05-11T20:19:11.965Z,17.80
2023-05-11T20:21:38.645Z,17.70
2023-05-11T20:24:05.325Z,17.70
2023-05-11T20:26:31.952Z,17.70
2023-05-11T20:28:58.600Z,17.60
2023-05-11T20:31:26.223Z,17.60
2023-05-11T20:36:22.448Z,17.50
2023-05-11T20:38:49.487Z,17.50
2023-05-11T20:41:16.142Z,17.40
2023-05-11T20:43:42.731Z,17.40
2023-05-11T20:46:11.503Z,17.40
2023-05-11T20:48:40.324Z,17.30
2023-05-11T20:51:07.674Z,17.30
2023-05-11T20:53:34.539Z,17.30
2023-05-11T20:56:02.735Z,17.30
2023-05-11T20:58:30.947Z,17.20
2023-05-11T21:00:57.986Z,17.20
2023-05-11T21:03:26.851Z,17.10
2023-05-11T21:05:53.799Z,17.10
2023-05-11T21:08:20.484Z,17.10
2023-05-11T21:10:47.164Z,17.10
2023-05-11T21:13:13.967Z,17.00
2023-05-11T21:15:41.331Z,17.00
2023-05-11T21:18:08.434Z,17.00
2023-05-11T21:20:35.744Z,16.90
2023-05-11T21:23:02.655Z,16.90
2023-05-11T21:25:30.793Z,16.90
2023-05-11T21:27:57.619Z,16.90
2023-05-11T21:30:24.294Z,16.80
2023-05-11T21:32:50.999Z,16.80
2023-05-11T21:35:18.079Z,16.80
2023-05-11T21:37:49.456Z,16.70
2023-05-11T21:40:17.926Z,16.70
2023-05-11T21:42:45.096Z,16.70
2023-05-11T21:45:12.351Z,16.70
2023-05-11T21:47:39.255Z,16.60
2023-05-11T21:50:07.776Z,16.60
2023-05-11T21:52:34.449Z,16.60
2023-05-11T21:55:01.324Z,16.60
2023-05-11T21:57:28.053Z,16.50
2023-05-11T21:59:54.713Z,16.50
2023-05-11T22:02:21.740Z,16.50
2023-05-11T22:04:48.793Z,16.50
2023-05-11T22:07:15.574Z,16.40
2023-05-11T22:09:42.265Z,16.40
2023-05-11T22:12:09.292Z,16.40
2023-05-11T22:14:36.402Z,16.40
2023-05-11T22:17:03.393Z,16.30
2023-05-11T22:19:30.226Z,16.30
2023-05-11T22:21:57.089Z,16.30
2023-05-11T22:24:27.005Z,16.30
2023-05-11T22:26:54.661Z,16.20
2023-05-11T22:29:22.025Z,16.20
2023-05-11T22:31:49.361Z,16.20
2023-05-11T22:34:16.378Z,16.20
2023-05-11T22:36:43.187Z,16.20
2023-05-11T22:39:11.434Z,16.10
2023-05-11T22:41:38.596Z,16.10
2023-05-11T22:44:05.688Z,16.10
2023-05-11T22:46:32.399Z,16.10
2023-05-11T22:48:59.091Z,16.00
2023-05-11T22:51:25.778Z,16.00
2023-05-11T22:53:52.378Z,16.00
2023-05-11T22:56:19.175Z,16.00
2023-05-11T22:58:46.024Z,16.00
2023-05-11T23:01:12.930Z,15.90
2023-05-11T23:03:40.214Z,15.90
2023-05-11T23:06:07.149Z,15.90
2023-05-11T23:08:33.805Z,15.90
2023-05-11T23:11:00.491Z,15.90
2023-05-11T23:13:27.639Z,15.80
2023-05-11T23:15:54.285Z,15.80
2023-05-11T23:18:21.210Z,15.80
2023-05-11T23:20:47.909Z,15.80
2023-05-11T23:23:14.727Z,15.80
2023-05-11T23:25:41.645Z,15.80
2023-05-11T23:28:11.650Z,15.70
2023-05-11T23:30:38.407Z,15.70
2023-05-11T23:33:05.138Z,15.70
2023-05-11T23:35:31.847Z,15.70
2023-05-11T23:37:58.765Z,15.60
2023-05-11T23:40:28.596Z,15.60
2023-05-11T23:42:55.349Z,15.60
2023-05-11T23:45:23.462Z,15.60
2023-05-11T23:47:50.164Z,15.60
2023-05-11T23:50:17.131Z,15.60
2023-05-11T23:52:44.105Z,15.50
2023-05-11T23:55:11.091Z,15.50
2023-05-11T23:57:37.905Z,15.50
